You are listening to:
KMDW Tower - Chicago, Illinois, United States

KMDW 081253Z 00000KT 10SM FEW200 BKN250 M03/M05 A3026 RMK AO2 SLP259 T10281050

If stream doesn't start automatically press the play button
If stream stops then reload player then press play